createdAt,value
2023-02-18T00:00:00.641Z,0.50
2023-02-18T00:01:00.621Z,0.50
2023-02-18T00:02:00.627Z,0.51
2023-02-18T00:03:00.627Z,0.51
2023-02-18T00:04:00.650Z,0.51
2023-02-18T00:05:00.663Z,0.50
2023-02-18T00:06:00.638Z,0.50
2023-02-18T00:07:00.644Z,0.51
2023-02-18T00:08:00.635Z,0.51
2023-02-18T00:09:00.629Z,0.51
2023-02-18T00:10:00.625Z,0.51
2023-02-18T00:11:00.644Z,0.51
2023-02-18T00:13:00.666Z,0.51
2023-02-18T00:24:00.629Z,0.50
2023-02-18T00:25:00.654Z,0.50
2023-02-18T00:26:00.632Z,0.51
2023-02-18T00:27:00.645Z,0.50
2023-02-18T00:28:00.650Z,0.51
2023-02-18T00:29:00.659Z,0.51
2023-02-18T00:30:00.755Z,0.51
2023-02-18T00:31:00.768Z,0.51
2023-02-18T00:32:00.890Z,0.51
2023-02-18T00:35:00.901Z,0.50
2023-02-18T00:36:00.938Z,0.50
2023-02-18T00:37:01.002Z,0.50
2023-02-18T02:14:02.611Z,0.51
2023-02-18T02:15:02.678Z,0.52
2023-02-18T02:16:02.709Z,0.51
2023-02-18T02:17:02.645Z,0.52
2023-02-18T02:18:02.660Z,0.52
2023-02-18T02:19:02.656Z,0.51
2023-02-18T02:20:02.658Z,0.52
2023-02-18T02:21:02.635Z,0.52
2023-02-18T02:22:02.640Z,0.51
2023-02-18T02:23:02.655Z,0.51
2023-02-18T02:24:02.706Z,0.51
2023-02-18T02:25:02.729Z,0.51
2023-02-18T02:26:02.813Z,0.52
2023-02-18T02:27:02.867Z,0.52
2023-02-18T02:28:02.889Z,0.50
2023-02-18T02:29:02.968Z,0.51
2023-02-18T02:30:03.010Z,0.50
2023-02-18T02:31:03.093Z,0.51
2023-02-18T02:32:03.063Z,0.51
2023-02-18T02:33:03.098Z,0.50
2023-02-18T02:34:03.171Z,0.51
2023-02-18T02:35:03.219Z,0.51
2023-02-18T02:36:03.256Z,0.51
2023-02-18T02:38:03.339Z,0.51
2023-02-18T02:39:03.378Z,0.51
2023-02-18T02:40:03.459Z,0.50
2023-02-18T02:41:03.482Z,0.51
2023-02-18T02:42:03.535Z,0.51
2023-02-18T02:43:03.625Z,0.51
2023-02-18T02:44:03.643Z,0.51
2023-02-18T02:45:03.711Z,0.51
2023-02-18T02:46:03.799Z,0.51
2023-02-18T02:47:03.814Z,0.50
2023-02-18T02:48:03.861Z,0.52
2023-02-18T02:49:03.880Z,0.50
2023-02-18T02:50:03.936Z,0.50
2023-02-18T02:51:03.967Z,0.51
2023-02-18T02:52:04.004Z,0.51
2023-02-18T02:53:04.103Z,0.51
2023-02-18T02:54:04.117Z,0.51
2023-02-18T02:55:04.168Z,0.51
2023-02-18T02:56:04.244Z,0.50
2023-02-18T02:57:04.287Z,0.50
2023-02-18T02:58:04.334Z,0.50
2023-02-18T02:59:04.374Z,0.50
2023-02-18T03:00:04.458Z,0.51
2023-02-18T03:01:04.512Z,0.50
2023-02-18T03:02:04.548Z,0.51
2023-02-18T03:03:04.599Z,0.51
2023-02-18T03:04:04.637Z,0.51
2023-02-18T03:05:04.682Z,0.51
2023-02-18T03:06:04.735Z,0.51
2023-02-18T03:07:04.777Z,0.51
2023-02-18T03:08:04.846Z,0.51
2023-02-18T03:09:04.876Z,0.51
2023-02-18T03:10:04.913Z,0.51
2023-02-18T03:11:05.007Z,0.51
2023-02-18T03:12:05.001Z,0.51
2023-02-18T03:13:05.057Z,0.51
2023-02-18T03:14:05.076Z,0.51
2023-02-18T03:15:05.260Z,0.50
2023-02-18T03:16:05.320Z,0.50
2023-02-18T03:17:05.253Z,0.50
2023-02-18T03:18:05.351Z,0.51
2023-02-18T03:19:05.360Z,0.50
2023-02-18T03:20:05.499Z,0.51
2023-02-18T03:21:05.438Z,0.50
2023-02-18T03:22:05.514Z,0.51
2023-02-18T03:23:05.594Z,0.51
2023-02-18T03:24:05.598Z,0.50
2023-02-18T03:25:05.643Z,0.51
2023-02-18T03:26:05.941Z,0.50
2023-02-18T03:27:05.720Z,0.51
2023-02-18T03:28:05.778Z,0.50
2023-02-18T03:29:05.783Z,0.50
2023-02-18T03:30:05.798Z,0.50
2023-02-18T03:31:05.796Z,0.50
2023-02-18T03:32:05.841Z,0.51
2023-02-18T03:33:05.766Z,0.50
2023-02-18T03:34:05.805Z,0.51
2023-02-18T03:35:05.843Z,0.50
2023-02-18T03:36:06.127Z,0.51
2023-02-18T03:37:05.946Z,0.51
2023-02-18T03:38:06.010Z,0.51
2023-02-18T03:39:06.028Z,0.51
2023-02-18T03:40:06.107Z,0.51
2023-02-18T03:41:06.153Z,0.50
2023-02-18T03:42:06.196Z,0.52
2023-02-18T03:43:06.274Z,0.51
2023-02-18T03:44:06.283Z,0.51
2023-02-18T03:45:06.434Z,0.52
2023-02-18T03:46:06.625Z,0.51
2023-02-18T03:47:06.440Z,0.52
2023-02-18T03:48:06.498Z,0.51
2023-02-18T03:49:06.589Z,0.51
2023-02-18T03:50:06.596Z,0.52
2023-02-18T03:51:06.703Z,0.50
2023-02-18T03:52:06.723Z,0.51
2023-02-18T03:53:06.761Z,0.51
2023-02-18T03:54:06.790Z,0.51
2023-02-18T03:55:06.875Z,0.51
2023-02-18T03:56:07.477Z,0.51
2023-02-18T03:57:06.967Z,0.50
2023-02-18T03:58:07.062Z,0.51
2023-02-18T03:59:07.053Z,0.51
2023-02-18T04:00:07.132Z,0.51
2023-02-18T04:01:07.209Z,0.51
2023-02-18T04:02:07.233Z,0.51
2023-02-18T04:03:07.286Z,0.50
2023-02-18T04:04:07.400Z,0.51
2023-02-18T04:05:07.405Z,0.51
2023-02-18T04:06:07.815Z,0.51
2023-02-18T04:07:07.524Z,0.50
2023-02-18T04:08:07.563Z,0.50
2023-02-18T04:09:07.602Z,0.50
2023-02-18T04:10:07.636Z,0.52
2023-02-18T04:11:07.687Z,0.50
2023-02-18T04:12:07.763Z,0.51
2023-02-18T04:13:07.810Z,0.50
2023-02-18T04:14:07.833Z,0.51
2023-02-18T04:15:07.905Z,0.51
2023-02-18T04:16:08.266Z,0.51
2023-02-18T04:17:08.004Z,0.51
2023-02-18T04:18:08.025Z,0.51
2023-02-18T04:19:08.118Z,0.50
2023-02-18T04:20:08.137Z,0.50
2023-02-18T04:21:08.208Z,0.51
2023-02-18T04:22:08.290Z,0.50
2023-02-18T04:24:08.289Z,0.51
2023-02-18T04:25:08.307Z,0.51
2023-02-18T04:26:08.609Z,0.51
2023-02-18T04:27:08.303Z,0.51
2023-02-18T04:28:08.314Z,0.51
2023-02-18T04:29:08.400Z,0.51
2023-02-18T04:30:08.493Z,0.52
2023-02-18T04:31:08.505Z,0.51
2023-02-18T04:32:08.540Z,0.51
2023-02-18T04:33:08.472Z,0.50
2023-02-18T04:34:08.521Z,0.51
2023-02-18T04:35:08.584Z,0.51
2023-02-18T05:03:09.315Z,0.51
2023-02-18T05:04:09.368Z,0.51
2023-02-18T05:05:09.309Z,0.52
2023-02-18T05:06:09.698Z,0.51
2023-02-18T05:07:09.347Z,0.50
2023-02-18T05:08:09.380Z,0.51
2023-02-18T05:09:09.456Z,0.52
2023-02-18T05:10:09.493Z,0.51
2023-02-18T05:11:09.534Z,0.51
2023-02-18T05:12:09.607Z,0.51
2023-02-18T05:13:09.673Z,0.52
2023-02-18T05:14:09.725Z,0.52
2023-02-18T05:15:09.760Z,0.52
2023-02-18T05:16:10.268Z,0.51
2023-02-18T05:17:09.938Z,0.51
2023-02-18T05:18:09.927Z,0.52
2023-02-18T05:19:10.005Z,0.52
2023-02-18T05:20:10.146Z,0.51
2023-02-18T05:21:10.084Z,0.51
2023-02-18T05:22:10.133Z,0.52
2023-02-18T05:23:10.199Z,0.51
2023-02-18T05:24:10.278Z,0.51
2023-02-18T05:25:10.319Z,0.51
2023-02-18T05:26:10.769Z,0.51
2023-02-18T05:27:10.409Z,0.51
2023-02-18T05:28:10.484Z,0.51
2023-02-18T05:29:10.539Z,0.51
2023-02-18T05:30:10.645Z,0.51
2023-02-18T05:31:10.704Z,0.51
2023-02-18T05:32:10.717Z,0.51
2023-02-18T05:34:10.832Z,0.51
2023-02-18T05:35:10.869Z,0.50
2023-02-18T05:36:10.945Z,0.51
2023-02-18T05:37:11.003Z,0.51
2023-02-18T05:38:11.059Z,0.51
2023-02-18T05:39:11.096Z,0.50
2023-02-18T05:40:11.203Z,0.51
2023-02-18T05:41:11.243Z,0.51
2023-02-18T05:42:11.282Z,0.51
2023-02-18T05:43:11.377Z,0.51
2023-02-18T05:44:11.433Z,0.51
2023-02-18T05:45:11.492Z,0.50
2023-02-18T05:46:11.719Z,0.51
2023-02-18T05:47:11.789Z,0.51
2023-02-18T05:48:11.634Z,0.50
2023-02-18T05:49:11.668Z,0.51
2023-02-18T05:50:11.759Z,0.51
2023-02-18T05:51:11.781Z,0.51
2023-02-18T05:52:11.882Z,0.50
2023-02-18T05:53:11.900Z,0.51
2023-02-18T05:54:11.963Z,0.50
2023-02-18T05:55:12.049Z,0.50
2023-02-18T05:56:12.116Z,0.51
2023-02-18T05:57:12.138Z,0.51
2023-02-18T05:58:12.218Z,0.51
2023-02-18T05:59:12.282Z,0.52
2023-02-18T06:07:12.648Z,0.51
2023-02-18T06:08:12.669Z,0.50
2023-02-18T06:09:12.690Z,0.50
2023-02-18T06:10:12.718Z,0.51
2023-02-18T06:11:12.700Z,0.51
2023-02-18T06:12:12.708Z,0.51
2023-02-18T06:13:12.762Z,0.51
2023-02-18T06:14:12.763Z,0.51
2023-02-18T06:15:12.747Z,0.51
2023-02-18T06:16:12.849Z,0.50
2023-02-18T06:17:12.751Z,0.51
2023-02-18T06:18:12.792Z,0.50
2023-02-18T06:19:12.795Z,0.50
2023-02-18T06:20:12.809Z,0.51
2023-02-18T06:21:12.816Z,0.52
2023-02-18T06:22:12.848Z,0.50
2023-02-18T06:23:12.870Z,0.51
2023-02-18T06:24:12.872Z,0.52
2023-02-18T06:25:12.891Z,0.51
2023-02-18T06:26:12.882Z,0.52
2023-02-18T06:27:12.935Z,0.51
2023-02-18T06:28:12.965Z,0.51
2023-02-18T06:29:12.938Z,0.51
2023-02-18T06:30:13.013Z,0.51
2023-02-18T06:31:13.135Z,0.51
2023-02-18T06:32:13.097Z,0.51
2023-02-18T06:33:12.994Z,0.51
2023-02-18T06:34:13.046Z,0.50
2023-02-18T06:35:13.025Z,0.51
2023-02-18T06:36:13.039Z,0.51
2023-02-18T06:37:13.073Z,0.50
2023-02-18T06:38:13.152Z,0.51
2023-02-18T06:39:13.234Z,0.51
2023-02-18T06:40:13.269Z,0.50
2023-02-18T06:41:13.354Z,0.51
2023-02-18T06:42:13.410Z,0.51
2023-02-18T06:43:13.408Z,0.51
2023-02-18T06:44:13.391Z,0.50
2023-02-18T06:45:13.455Z,0.51
2023-02-18T06:46:13.546Z,0.51
2023-02-18T06:47:13.526Z,0.51
2023-02-18T06:48:13.579Z,0.51
2023-02-18T06:49:13.662Z,0.50
2023-02-18T06:50:13.675Z,0.51
2023-02-18T06:51:13.754Z,0.50
2023-02-18T06:52:13.832Z,0.51
2023-02-18T06:53:13.873Z,0.50
2023-02-18T06:54:13.905Z,0.50
2023-02-18T06:55:13.993Z,0.51
2023-02-18T06:56:14.039Z,0.52
2023-02-18T06:57:14.110Z,0.52
2023-02-18T06:58:14.111Z,0.51
2023-02-18T06:59:14.141Z,0.51
2023-02-18T07:00:14.114Z,0.51
2023-02-18T07:01:14.219Z,0.50
2023-02-18T07:02:14.185Z,0.51
2023-02-18T07:03:14.160Z,0.50
2023-02-18T07:04:14.160Z,0.51
2023-02-18T07:05:14.172Z,0.50
2023-02-18T07:06:14.214Z,0.50
2023-02-18T07:07:14.242Z,0.52
2023-02-18T07:08:14.250Z,0.51
2023-02-18T07:09:14.224Z,0.51
2023-02-18T07:10:14.240Z,0.51
2023-02-18T07:11:14.259Z,0.51
2023-02-18T07:12:14.244Z,0.50
2023-02-18T07:13:14.277Z,0.50
2023-02-18T07:14:14.251Z,0.51
2023-02-18T07:15:14.275Z,0.51
2023-02-18T07:16:14.347Z,0.51
2023-02-18T07:17:14.309Z,0.51
2023-02-18T07:18:14.318Z,0.51
2023-02-18T07:19:15.033Z,0.52
2023-02-18T07:20:14.291Z,0.52
2023-02-18T07:21:14.285Z,0.52
2023-02-18T07:22:14.299Z,0.52
2023-02-18T07:23:14.298Z,0.51
2023-02-18T07:24:14.330Z,0.51
2023-02-18T07:25:14.299Z,0.51
2023-02-18T07:26:14.310Z,0.51
2023-02-18T07:27:14.318Z,0.52
2023-02-18T07:28:14.281Z,0.51
2023-02-18T07:29:14.325Z,0.51
2023-02-18T07:30:14.390Z,0.52
2023-02-18T07:31:14.452Z,0.52
2023-02-18T07:32:14.499Z,0.51
2023-02-18T07:33:14.448Z,0.50
2023-02-18T07:34:14.487Z,0.51
2023-02-18T07:35:14.531Z,0.51
2023-02-18T07:36:14.546Z,0.51
2023-02-18T07:37:14.572Z,0.51
2023-02-18T07:38:14.635Z,0.50
2023-02-18T07:39:14.678Z,0.51
2023-02-18T07:40:14.701Z,0.51
2023-02-18T07:41:14.708Z,0.50
2023-02-18T07:42:14.759Z,0.51
2023-02-18T07:43:14.811Z,0.51
2023-02-18T07:44:14.830Z,0.50
2023-02-18T07:45:14.845Z,0.51
2023-02-18T07:46:14.906Z,0.52
2023-02-18T07:47:14.921Z,0.52
2023-02-18T07:48:14.962Z,0.52
2023-02-18T07:49:14.991Z,0.50
2023-02-18T07:50:15.001Z,0.51
2023-02-18T07:51:15.050Z,0.52
2023-02-18T07:52:15.069Z,0.53
2023-02-18T07:53:15.103Z,0.53
2023-02-18T07:54:15.132Z,0.50
2023-02-18T07:55:15.146Z,0.52
2023-02-18T07:56:15.169Z,0.54
2023-02-18T07:57:15.241Z,0.54
2023-02-18T07:58:15.233Z,0.55
2023-02-18T07:59:15.285Z,0.54
2023-02-18T08:00:15.310Z,0.54
2023-02-18T08:01:15.374Z,0.54
2023-02-18T08:02:15.404Z,0.53
2023-02-18T08:03:15.379Z,0.55
2023-02-18T08:04:15.502Z,0.56
2023-02-18T08:05:15.462Z,0.54
2023-02-18T08:06:15.500Z,0.53
2023-02-18T08:07:15.539Z,0.52
2023-02-18T08:08:15.567Z,0.54
2023-02-18T08:09:15.566Z,0.54
2023-02-18T08:10:15.617Z,0.55
2023-02-18T08:11:19.459Z,0.55
2023-02-18T08:12:15.676Z,0.55
2023-02-18T08:13:15.657Z,0.55
2023-02-18T08:14:15.668Z,0.55
2023-02-18T08:15:15.655Z,0.55
2023-02-18T08:16:15.720Z,0.55
2023-02-18T08:17:15.634Z,0.56
2023-02-18T08:18:15.620Z,0.56
2023-02-18T08:19:15.955Z,0.55
2023-02-18T08:20:15.654Z,0.56
2023-02-18T08:21:15.609Z,0.54
2023-02-18T08:22:15.574Z,0.55
2023-02-18T08:23:15.576Z,0.55
2023-02-18T08:24:15.578Z,0.55
2023-02-18T08:25:27.670Z,0.55
2023-02-18T08:26:16.566Z,0.55
2023-02-18T08:27:15.581Z,0.55
2023-02-18T08:28:15.563Z,0.55
2023-02-18T08:29:15.572Z,0.55
2023-02-18T08:30:15.538Z,0.55
2023-02-18T08:31:15.647Z,0.55
2023-02-18T08:32:15.610Z,0.56
2023-02-18T08:33:15.505Z,0.57
2023-02-18T08:34:15.517Z,0.56
2023-02-18T08:35:15.540Z,0.56
2023-02-18T08:36:15.509Z,0.56
2023-02-18T08:37:15.513Z,0.56
2023-02-18T08:38:15.514Z,0.56
2023-02-18T08:39:15.510Z,0.56
2023-02-18T08:40:15.455Z,0.56
2023-02-18T08:41:15.461Z,0.56
2023-02-18T08:42:15.497Z,0.56
2023-02-18T08:43:15.445Z,0.56
2023-02-18T08:44:15.472Z,0.56
2023-02-18T08:45:15.570Z,0.55
2023-02-18T08:46:16.152Z,0.56
2023-02-18T08:48:13.690Z,0.56
2023-02-18T08:48:20.491Z,0.56
2023-02-18T08:49:15.449Z,0.56
2023-02-18T08:50:15.434Z,0.56
2023-02-18T08:51:15.390Z,0.56
2023-02-18T08:52:15.400Z,0.56
2023-02-18T08:53:15.411Z,0.55
2023-02-18T08:54:15.379Z,0.56
2023-02-18T08:55:15.380Z,0.57
2023-02-18T08:56:15.442Z,0.56
2023-02-18T08:57:15.343Z,0.56
2023-02-18T08:58:15.336Z,0.56
2023-02-18T08:59:15.339Z,0.56
2023-02-18T09:00:15.529Z,0.55
2023-02-18T09:01:15.381Z,0.55
2023-02-18T09:02:15.319Z,0.56
2023-02-18T09:03:15.302Z,0.55
2023-02-18T09:04:15.395Z,0.55
2023-02-18T09:05:15.310Z,0.56
2023-02-18T09:06:15.297Z,0.55
2023-02-18T09:07:15.317Z,0.56
2023-02-18T09:08:15.361Z,0.55
2023-02-18T09:09:15.374Z,0.56
2023-02-18T09:10:15.379Z,0.56
2023-02-18T09:11:15.406Z,0.56
2023-02-18T09:12:15.492Z,0.56
2023-02-18T09:13:15.520Z,0.56
2023-02-18T09:14:15.606Z,0.56
2023-02-18T09:15:15.634Z,0.56
2023-02-18T09:16:15.674Z,0.56
2023-02-18T09:17:15.730Z,0.56
2023-02-18T09:18:15.740Z,0.56
2023-02-18T09:19:15.790Z,0.56
2023-02-18T09:20:15.858Z,0.56
2023-02-18T09:21:15.879Z,0.55
2023-02-18T09:22:15.878Z,0.55
2023-02-18T09:23:15.920Z,0.55
2023-02-18T09:24:15.921Z,0.55
2023-02-18T09:25:15.964Z,0.55
2023-02-18T09:26:15.957Z,0.54
2023-02-18T09:27:16.005Z,0.54
2023-02-18T09:28:16.022Z,0.55
2023-02-18T09:29:16.061Z,0.55
2023-02-18T09:30:16.113Z,0.55
2023-02-18T09:31:16.306Z,0.55
2023-02-18T09:32:28.842Z,0.55
2023-02-18T09:33:17.194Z,0.55
2023-02-18T09:34:16.099Z,0.55
2023-02-18T09:35:16.169Z,0.54
2023-02-18T09:36:16.120Z,0.55
2023-02-18T09:37:16.093Z,0.55
2023-02-18T09:38:16.103Z,0.55
2023-02-18T09:39:16.074Z,0.55
2023-02-18T09:40:16.084Z,0.55
2023-02-18T09:41:16.067Z,0.55
2023-02-18T09:42:16.039Z,0.55
2023-02-18T09:43:16.072Z,0.56
2023-02-18T09:44:16.079Z,0.56
2023-02-18T09:45:16.073Z,0.56
2023-02-18T09:46:16.098Z,0.56
2023-02-18T09:47:16.040Z,0.56
2023-02-18T09:48:16.031Z,0.56
2023-02-18T09:49:16.047Z,0.56
2023-02-18T09:50:16.001Z,0.56
2023-02-18T09:51:16.056Z,0.56
2023-02-18T09:52:16.024Z,0.56
2023-02-18T09:53:16.015Z,0.56
2023-02-18T09:54:16.048Z,0.56
2023-02-18T09:55:16.041Z,0.56
2023-02-18T09:56:16.038Z,0.57
2023-02-18T09:57:16.411Z,0.56
2023-02-18T09:58:16.072Z,0.56
2023-02-18T09:59:16.102Z,0.56
2023-02-18T10:00:16.107Z,0.56
2023-02-18T10:01:16.184Z,0.56
2023-02-18T10:02:16.090Z,0.56
2023-02-18T10:03:16.079Z,0.56
2023-02-18T10:04:16.116Z,0.57
2023-02-18T10:05:16.095Z,0.55
2023-02-18T10:06:16.114Z,0.56
2023-02-18T10:07:16.113Z,0.56
2023-02-18T10:08:16.168Z,0.55
2023-02-18T10:09:16.200Z,0.55
2023-02-18T10:10:16.309Z,0.54
2023-02-18T10:11:16.285Z,0.55
2023-02-18T10:12:16.330Z,0.55
2023-02-18T10:13:16.341Z,0.54
2023-02-18T10:14:16.404Z,0.55
2023-02-18T10:15:16.447Z,0.54
2023-02-18T10:16:16.563Z,0.54
2023-02-18T10:17:16.489Z,0.54
2023-02-18T10:18:16.547Z,0.55
2023-02-18T10:19:16.567Z,0.55
2023-02-18T10:20:16.580Z,0.55
2023-02-18T10:21:16.604Z,0.54
2023-02-18T10:22:16.638Z,0.55
2023-02-18T10:23:16.661Z,0.54
2023-02-18T10:24:16.713Z,0.55
2023-02-18T10:25:16.729Z,0.55
2023-02-18T10:26:16.755Z,0.53
2023-02-18T10:27:16.781Z,0.53
2023-02-18T10:28:16.816Z,0.53
2023-02-18T10:29:18.690Z,0.53
2023-02-18T10:30:16.948Z,0.54
2023-02-18T10:31:16.983Z,0.53
2023-02-18T10:32:16.853Z,0.53
2023-02-18T10:33:16.818Z,0.54
2023-02-18T10:34:16.812Z,0.53
2023-02-18T10:35:16.800Z,0.52
2023-02-18T10:36:16.806Z,0.52
2023-02-18T10:37:16.796Z,0.52
2023-02-18T10:38:16.790Z,0.53
2023-02-18T10:39:16.790Z,0.51
2023-02-18T10:40:16.816Z,0.52
2023-02-18T10:41:16.777Z,0.52
2023-02-18T10:42:16.734Z,0.53
2023-02-18T10:43:16.783Z,0.53
2023-02-18T10:44:16.748Z,0.52
2023-02-18T10:45:16.738Z,0.53
2023-02-18T10:46:16.767Z,0.52
2023-02-18T10:47:16.714Z,0.52
2023-02-18T10:48:16.725Z,0.52
2023-02-18T10:49:16.719Z,0.52
2023-02-18T10:50:16.692Z,0.52
2023-02-18T10:51:16.690Z,0.52
2023-02-18T10:52:16.672Z,0.51
2023-02-18T10:53:16.674Z,0.51
2023-02-18T10:54:16.682Z,0.53
2023-02-18T10:55:16.664Z,0.53
2023-02-18T10:56:16.730Z,0.51
2023-02-18T10:57:16.663Z,0.52
2023-02-18T10:58:16.631Z,0.51
2023-02-18T10:59:16.654Z,0.51
2023-02-18T11:00:16.670Z,0.51
2023-02-18T11:01:16.736Z,0.51
2023-02-18T11:02:16.622Z,0.52
2023-02-18T11:03:16.592Z,0.52
2023-02-18T11:04:16.661Z,0.50
2023-02-18T11:05:16.619Z,0.52
2023-02-18T11:06:16.598Z,0.51
2023-02-18T11:07:16.609Z,0.52
2023-02-18T11:08:16.583Z,0.51
2023-02-18T11:09:16.586Z,0.52
2023-02-18T11:10:16.649Z,0.52
2023-02-18T11:11:16.549Z,0.51
2023-02-18T11:12:16.557Z,0.52
2023-02-18T11:13:16.541Z,0.51
2023-02-18T11:14:16.532Z,0.51
2023-02-18T11:15:16.555Z,0.51
2023-02-18T11:16:17.439Z,0.51
2023-02-18T11:17:16.529Z,0.51
2023-02-18T11:18:16.549Z,0.51
2023-02-18T11:19:16.516Z,0.51
2023-02-18T11:20:16.519Z,0.50
2023-02-18T11:21:16.478Z,0.51
2023-02-18T11:22:16.486Z,0.51
2023-02-18T11:23:16.484Z,0.51
2023-02-18T11:24:16.495Z,0.51
2023-02-18T11:25:16.493Z,0.51
2023-02-18T11:26:16.494Z,0.52
2023-02-18T11:27:16.461Z,0.52
2023-02-18T11:28:16.436Z,0.50
2023-02-18T11:29:16.456Z,0.50
2023-02-18T11:30:16.562Z,0.51
2023-02-18T11:31:16.482Z,0.51
2023-02-18T11:32:16.462Z,0.51
2023-02-18T11:33:16.436Z,0.50
2023-02-18T11:34:16.401Z,0.52
2023-02-18T11:35:16.421Z,0.51
2023-02-18T11:36:16.386Z,0.51
2023-02-18T11:37:16.370Z,0.51
2023-02-18T11:38:16.408Z,0.51
2023-02-18T11:39:16.370Z,0.52
2023-02-18T11:40:16.374Z,0.50
2023-02-18T11:41:16.373Z,0.52
2023-02-18T11:42:16.364Z,0.51
2023-02-18T11:43:16.332Z,0.51
2023-02-18T11:44:16.335Z,0.52
2023-02-18T11:45:16.335Z,0.51
2023-02-18T11:46:16.316Z,0.50
2023-02-18T11:47:16.315Z,0.50
2023-02-18T11:48:16.337Z,0.51
2023-02-18T11:49:16.293Z,0.52
2023-02-18T11:50:16.407Z,0.52
2023-02-18T11:51:16.313Z,0.52
2023-02-18T11:52:16.281Z,0.52
2023-02-18T11:53:16.301Z,0.51
2023-02-18T11:54:16.267Z,0.51
2023-02-18T11:55:16.261Z,0.51
2023-02-18T11:56:16.281Z,0.51
2023-02-18T11:57:16.281Z,0.51
2023-02-18T11:58:16.256Z,0.51
2023-02-18T11:59:16.214Z,0.51
2023-02-18T12:00:16.232Z,0.52
2023-02-18T12:01:16.217Z,0.51
2023-02-18T12:02:16.293Z,0.51
2023-02-18T12:03:16.223Z,0.52
2023-02-18T12:04:16.229Z,0.51
2023-02-18T12:05:16.293Z,0.51
2023-02-18T12:06:16.191Z,0.51
2023-02-18T12:07:16.204Z,0.52
2023-02-18T12:08:16.195Z,0.51
2023-02-18T12:09:16.171Z,0.51
2023-02-18T12:10:16.203Z,0.51
2023-02-18T12:11:16.153Z,0.51
2023-02-18T12:12:16.190Z,0.51
2023-02-18T12:13:16.137Z,0.51
2023-02-18T12:14:16.124Z,0.50
2023-02-18T12:15:16.143Z,0.51
2023-02-18T12:16:16.131Z,0.52
2023-02-18T12:17:16.120Z,0.52
2023-02-18T12:18:16.122Z,0.52
2023-02-18T12:19:16.110Z,0.52
2023-02-18T12:20:16.115Z,0.51
2023-02-18T12:21:16.092Z,0.51
2023-02-18T12:22:16.084Z,0.51
2023-02-18T12:23:16.088Z,0.52
2023-02-18T12:24:16.073Z,0.51
2023-02-18T12:25:16.063Z,0.51
2023-02-18T12:26:16.046Z,0.52
2023-02-18T12:27:16.060Z,0.52
2023-02-18T12:28:16.058Z,0.52
2023-02-18T12:29:16.043Z,0.52
2023-02-18T12:30:16.091Z,0.52
2023-02-18T12:31:16.049Z,0.52
2023-02-18T12:32:16.025Z,0.52
2023-02-18T12:33:16.017Z,0.51
2023-02-18T12:34:16.001Z,0.51
2023-02-18T12:35:16.138Z,0.51
2023-02-18T12:36:16.116Z,0.51
2023-02-18T12:37:16.106Z,0.51
2023-02-18T12:38:16.134Z,0.51
2023-02-18T12:39:16.099Z,0.52
2023-02-18T12:40:16.159Z,0.51
2023-02-18T12:41:16.137Z,0.50
2023-02-18T12:42:16.186Z,0.51
2023-02-18T12:43:16.158Z,0.51
2023-02-18T12:44:16.194Z,0.52
2023-02-18T12:45:16.250Z,0.51
2023-02-18T12:46:16.430Z,0.51
2023-02-18T12:47:16.325Z,0.51
2023-02-18T12:48:16.351Z,0.52
2023-02-18T12:49:16.405Z,0.51
2023-02-18T12:50:16.421Z,0.50
2023-02-18T12:51:16.497Z,0.52
2023-02-18T12:52:16.500Z,0.52
2023-02-18T12:53:16.556Z,0.52
2023-02-18T12:54:16.606Z,0.52
2023-02-18T12:55:16.627Z,0.51
2023-02-18T12:56:16.682Z,0.51
2023-02-18T12:57:16.709Z,0.52
2023-02-18T12:58:16.804Z,0.51
2023-02-18T12:59:16.778Z,0.51
2023-02-18T13:00:16.833Z,0.51
2023-02-18T13:01:16.881Z,0.51
2023-02-18T13:02:16.927Z,0.52
2023-02-18T13:03:16.970Z,0.51
2023-02-18T13:04:16.989Z,0.51
2023-02-18T13:05:17.047Z,0.51
2023-02-18T13:06:17.091Z,0.51
2023-02-18T13:07:17.127Z,0.51
2023-02-18T13:08:17.117Z,0.51
2023-02-18T13:09:17.139Z,0.52
2023-02-18T13:10:17.133Z,0.52
2023-02-18T13:11:17.121Z,0.51
2023-02-18T13:12:17.116Z,0.51
2023-02-18T13:13:17.135Z,0.51
2023-02-18T13:14:17.127Z,0.52
2023-02-18T13:15:17.168Z,0.53
2023-02-18T13:16:17.307Z,0.53
2023-02-18T13:17:17.133Z,0.53
2023-02-18T13:18:17.127Z,0.53
2023-02-18T13:19:17.104Z,0.53
2023-02-18T13:20:17.241Z,0.52
2023-02-18T13:21:17.104Z,0.52
2023-02-18T13:22:17.104Z,0.52
2023-02-18T13:23:17.129Z,0.51
2023-02-18T13:24:17.176Z,0.52
2023-02-18T13:25:17.215Z,0.52
2023-02-18T13:26:17.271Z,0.53
2023-02-18T13:27:17.315Z,0.52
2023-02-18T13:29:17.417Z,0.52
2023-02-18T13:30:17.459Z,0.52
2023-02-18T13:31:17.508Z,0.52
2023-02-18T13:32:19.370Z,0.53
2023-02-18T13:33:17.521Z,0.51
2023-02-18T13:34:17.553Z,0.52
2023-02-18T13:35:17.572Z,0.52
2023-02-18T13:36:17.599Z,0.51
2023-02-18T13:37:17.678Z,0.52
2023-02-18T13:38:17.726Z,0.53
2023-02-18T13:39:17.743Z,0.51
2023-02-18T13:40:17.794Z,0.51
2023-02-18T13:41:17.851Z,0.51
2023-02-18T13:42:17.884Z,0.52
2023-02-18T13:43:17.913Z,0.52
2023-02-18T13:44:17.964Z,0.50
2023-02-18T13:45:18.041Z,0.50
2023-02-18T13:46:18.069Z,0.51
2023-02-18T13:47:18.071Z,0.54
2023-02-18T13:48:18.164Z,0.53
2023-02-18T13:49:18.163Z,0.53
2023-02-18T13:50:18.229Z,0.52
2023-02-18T13:51:18.271Z,0.51
2023-02-18T13:52:18.386Z,0.51
2023-02-18T13:53:18.390Z,0.52
2023-02-18T13:54:18.428Z,0.51
2023-02-18T13:55:18.422Z,0.50
2023-02-18T13:56:18.478Z,0.53
2023-02-18T13:57:18.522Z,0.52
2023-02-18T13:58:18.542Z,0.51
2023-02-18T13:59:18.613Z,0.52
2023-02-18T14:00:18.668Z,0.52
2023-02-18T14:01:18.684Z,0.51
2023-02-18T14:02:18.757Z,0.51
2023-02-18T14:03:18.854Z,0.52
2023-02-18T14:04:18.876Z,0.51
2023-02-18T14:05:18.883Z,0.51
2023-02-18T14:06:18.978Z,0.51
2023-02-18T14:07:19.042Z,0.51
2023-02-18T14:08:19.066Z,0.50
2023-02-18T14:09:19.108Z,0.50
2023-02-18T14:10:19.189Z,0.51
2023-02-18T14:11:19.234Z,0.50
2023-02-18T14:12:19.282Z,0.50
2023-02-18T14:13:19.338Z,0.53
2023-02-18T14:14:19.406Z,0.54
2023-02-18T14:15:19.456Z,0.52
2023-02-18T14:16:19.500Z,0.51
2023-02-18T14:17:19.578Z,0.52
2023-02-18T14:18:19.613Z,0.50
2023-02-18T14:19:19.689Z,0.50
2023-02-18T14:20:19.774Z,0.52
2023-02-18T14:21:19.780Z,0.51
2023-02-18T14:22:19.855Z,0.50
2023-02-18T14:23:19.931Z,0.55
2023-02-18T14:24:19.963Z,0.54
2023-02-18T14:25:20.036Z,0.55
2023-02-18T14:26:20.107Z,0.54
2023-02-18T14:27:20.119Z,0.55
2023-02-18T14:28:20.217Z,0.57
2023-02-18T14:29:20.297Z,0.55
2023-02-18T14:30:20.410Z,0.54
2023-02-18T14:31:22.123Z,0.56
2023-02-18T14:32:21.526Z,0.52
2023-02-18T14:33:20.413Z,0.56
2023-02-18T14:34:20.383Z,0.56
2023-02-18T14:35:20.381Z,0.53
2023-02-18T14:36:20.350Z,0.52
2023-02-18T14:37:20.370Z,0.53
2023-02-18T14:38:20.338Z,0.54
2023-02-18T14:39:20.339Z,0.50
2023-02-18T14:40:20.351Z,0.53
2023-02-18T14:41:20.314Z,0.55
2023-02-18T14:42:20.360Z,0.53
2023-02-18T14:43:20.302Z,0.51
2023-02-18T14:44:20.292Z,0.52
2023-02-18T14:45:20.323Z,0.50
2023-02-18T14:46:20.382Z,0.55
2023-02-18T14:47:20.314Z,0.52
2023-02-18T14:48:20.343Z,0.51
2023-02-18T14:49:20.427Z,0.52
2023-02-18T14:50:20.415Z,0.52
2023-02-18T14:51:20.432Z,0.50
2023-02-18T14:52:20.456Z,0.57
2023-02-18T14:53:20.492Z,0.53
2023-02-18T14:54:20.512Z,0.55
2023-02-18T14:55:20.517Z,0.55
2023-02-18T14:56:20.561Z,0.51
2023-02-18T14:57:20.599Z,0.53
2023-02-18T14:58:20.615Z,0.52
2023-02-18T14:59:20.689Z,0.54
2023-02-18T15:00:20.694Z,0.54
2023-02-18T15:01:20.732Z,0.53
2023-02-18T15:02:20.742Z,0.53
2023-02-18T15:03:20.741Z,0.53
2023-02-18T15:04:20.821Z,0.52
2023-02-18T15:05:20.828Z,0.55
2023-02-18T15:06:20.870Z,0.58
2023-02-18T15:07:20.880Z,0.55
2023-02-18T15:08:20.950Z,0.56
2023-02-18T15:09:21.003Z,0.54
2023-02-18T15:10:20.962Z,0.56
2023-02-18T15:11:21.003Z,0.50
2023-02-18T15:12:21.007Z,0.51
2023-02-18T15:13:21.056Z,0.54
2023-02-18T15:14:21.101Z,0.52
2023-02-18T15:15:21.104Z,0.53
2023-02-18T15:16:21.252Z,0.55
2023-02-18T15:17:21.182Z,0.58
2023-02-18T15:18:21.230Z,0.55
2023-02-18T15:19:21.220Z,0.59
2023-02-18T15:20:21.278Z,0.58
2023-02-18T15:21:21.352Z,0.51
2023-02-18T15:22:21.318Z,0.55
2023-02-18T15:23:21.345Z,0.56
2023-02-18T15:24:21.397Z,0.56
2023-02-18T15:25:21.471Z,0.57
2023-02-18T15:26:21.486Z,0.54
2023-02-18T15:27:21.485Z,0.57
2023-02-18T15:28:21.544Z,0.54
2023-02-18T15:29:21.570Z,0.55
2023-02-18T15:30:21.648Z,0.54
2023-02-18T15:31:21.679Z,0.53
2023-02-18T15:32:21.863Z,0.50
2023-02-18T15:33:21.673Z,0.52
2023-02-18T15:34:21.671Z,0.54
2023-02-18T15:35:21.656Z,0.58
2023-02-18T15:36:21.692Z,0.57
2023-02-18T15:37:21.758Z,0.54
2023-02-18T15:38:21.728Z,0.58
2023-02-18T15:39:21.789Z,0.56
2023-02-18T15:40:21.832Z,0.53
2023-02-18T15:41:21.849Z,0.50
2023-02-18T15:42:21.899Z,0.57
2023-02-18T15:43:21.922Z,0.62
2023-02-18T15:44:21.963Z,0.59
2023-02-18T15:45:22.014Z,0.62